createdAt,value
2022-09-06T00:02:21.372Z,72.71
2022-09-06T00:04:49.938Z,72.58
2022-09-06T00:07:17.959Z,71.92
2022-09-06T00:09:45.830Z,71.50
2022-09-06T00:12:13.697Z,72.04
2022-09-06T00:14:43.108Z,72.81
2022-09-06T00:17:11.539Z,73.28
2022-09-06T00:19:39.527Z,73.72
2022-09-06T00:22:07.958Z,73.48
2022-09-06T00:24:37.144Z,73.13
2022-09-06T00:27:05.479Z,74.14
2022-09-06T00:29:33.981Z,73.87
2022-09-06T00:32:04.469Z,72.58
2022-09-06T00:34:32.695Z,71.99
2022-09-06T00:37:00.618Z,71.07
2022-09-06T00:39:28.779Z,72.75
2022-09-06T00:41:56.652Z,72.76
2022-09-06T00:44:25.015Z,73.07
2022-09-06T00:46:55.340Z,73.98
2022-09-06T00:49:27.584Z,73.68
2022-09-06T00:51:59.966Z,72.91
2022-09-06T00:54:28.769Z,72.35
2022-09-06T00:56:58.552Z,71.60
2022-09-06T00:59:27.243Z,71.29
2022-09-06T01:01:55.740Z,70.91
2022-09-06T01:04:26.581Z,71.25
2022-09-06T01:07:07.150Z,70.88
2022-09-06T01:09:49.273Z,70.94
2022-09-06T01:12:31.118Z,71.10
2022-09-06T01:15:09.334Z,71.50
2022-09-06T01:17:52.173Z,71.65
2022-09-06T01:20:52.588Z,71.32
2022-09-06T01:23:53.251Z,71.48
2022-09-06T01:27:03.540Z,70.58
2022-09-06T01:29:37.816Z,67.72
2022-09-06T01:32:13.380Z,65.43
2022-09-06T01:34:45.339Z,65.08
2022-09-06T01:37:16.822Z,65.90
2022-09-06T01:39:44.778Z,67.05
2022-09-06T01:42:17.806Z,67.73
2022-09-06T01:44:53.236Z,68.60
2022-09-06T01:47:37.589Z,70.21
2022-09-06T01:50:21.008Z,72.28
2022-09-06T01:53:00.743Z,73.11
2022-09-06T01:55:33.713Z,73.89
2022-09-06T01:58:23.332Z,74.61
2022-09-06T02:01:01.375Z,76.50
2022-09-06T02:03:36.374Z,77.09
2022-09-06T02:06:08.907Z,76.16
2022-09-06T02:08:43.342Z,75.58
2022-09-06T02:11:14.418Z,77.19
2022-09-06T02:13:49.489Z,78.26
2022-09-06T02:16:23.031Z,78.88
2022-09-06T02:18:57.521Z,80.24
2022-09-06T02:21:31.249Z,81.35
2022-09-06T02:24:03.018Z,84.03
2022-09-06T02:26:35.705Z,84.10
2022-09-06T02:29:03.826Z,85.06
2022-09-06T02:31:36.049Z,84.24
2022-09-06T02:34:05.375Z,84.36
2022-09-06T02:36:33.884Z,85.09
2022-09-06T02:39:02.091Z,85.62
2022-09-06T02:41:34.386Z,85.53
2022-09-06T02:44:02.359Z,86.29
2022-09-06T02:46:30.865Z,86.91
2022-09-06T02:49:00.278Z,90.21
2022-09-06T02:51:28.263Z,91.60
2022-09-06T02:53:56.836Z,94.52
2022-09-06T02:56:24.910Z,96.75
2022-09-06T02:58:53.030Z,99.00
2022-09-06T03:01:20.983Z,100.00
2022-09-06T03:03:49.024Z,100.00
2022-09-06T03:06:18.409Z,100.00
2022-09-06T03:08:46.346Z,100.00
2022-09-06T03:11:14.501Z,100.00
2022-09-06T03:13:42.471Z,100.00
2022-09-06T03:16:10.505Z,100.00
2022-09-06T03:18:38.381Z,100.00
2022-09-06T03:21:06.958Z,100.00
2022-09-06T03:23:37.418Z,100.00
2022-09-06T03:26:05.365Z,100.00
2022-09-06T03:28:33.421Z,100.00
2022-09-06T03:31:01.463Z,100.00
2022-09-06T03:33:29.466Z,100.00
2022-09-06T03:35:59.434Z,100.00
2022-09-06T03:38:29.233Z,100.00
2022-09-06T03:40:59.188Z,100.00
2022-09-06T03:43:28.587Z,100.00
2022-09-06T03:45:58.184Z,100.00
2022-09-06T03:48:29.174Z,100.00
2022-09-06T03:50:58.661Z,100.00
2022-09-06T03:53:28.750Z,100.00
2022-09-06T03:55:59.206Z,100.00
2022-09-06T03:58:31.550Z,100.00
2022-09-06T04:01:05.636Z,100.00
2022-09-06T04:03:34.368Z,100.00
2022-09-06T04:06:02.273Z,100.00
2022-09-06T04:08:30.558Z,100.00
2022-09-06T04:11:00.618Z,100.00
2022-09-06T04:13:30.313Z,100.00
2022-09-06T04:15:58.814Z,100.00
2022-09-06T04:18:27.347Z,100.00
2022-09-06T04:20:57.008Z,100.00
2022-09-06T04:23:26.206Z,100.00
2022-09-06T04:25:55.917Z,100.00
2022-09-06T04:28:26.591Z,100.00
2022-09-06T04:30:55.452Z,100.00
2022-09-06T04:33:25.824Z,100.00
2022-09-06T04:35:54.763Z,100.00
2022-09-06T04:38:22.764Z,100.00
2022-09-06T04:40:51.236Z,100.00
2022-09-06T04:43:19.389Z,100.00
2022-09-06T04:45:48.938Z,100.00
2022-09-06T04:48:17.119Z,100.00
2022-09-06T04:50:45.126Z,100.00
2022-09-06T04:53:13.607Z,100.00
2022-09-06T04:55:41.565Z,100.00
2022-09-06T04:58:09.705Z,100.00
2022-09-06T05:00:38.905Z,100.00
2022-09-06T05:03:09.843Z,100.00
2022-09-06T05:05:37.710Z,100.00
2022-09-06T05:08:05.580Z,100.00
2022-09-06T05:10:33.535Z,100.00
2022-09-06T05:13:01.439Z,100.00
2022-09-06T05:15:29.473Z,100.00
2022-09-06T05:18:03.975Z,100.00
2022-09-06T05:20:33.718Z,100.00
2022-09-06T05:23:01.750Z,100.00
2022-09-06T05:25:30.025Z,100.00
2022-09-06T05:27:57.974Z,100.00
2022-09-06T05:30:25.923Z,100.00
2022-09-06T05:32:53.943Z,100.00
2022-09-06T05:35:21.922Z,100.00
2022-09-06T05:37:51.291Z,100.00
2022-09-06T05:40:19.472Z,100.00
2022-09-06T05:42:47.395Z,100.00
2022-09-06T05:45:15.658Z,100.00
2022-09-06T05:47:43.779Z,100.00
2022-09-06T05:50:12.586Z,100.00
2022-09-06T05:52:40.720Z,100.00
2022-09-06T05:55:11.097Z,100.00
2022-09-06T05:57:39.109Z,100.00
2022-09-06T06:00:08.180Z,100.00
2022-09-06T06:02:39.870Z,100.00
2022-09-06T06:05:08.730Z,100.00
2022-09-06T06:07:36.734Z,100.00
2022-09-06T06:10:05.514Z,100.00
2022-09-06T06:12:35.392Z,100.00
2022-09-06T06:15:05.371Z,100.00
2022-09-06T06:17:33.362Z,100.00
2022-09-06T06:20:01.860Z,100.00
2022-09-06T06:22:29.840Z,100.00
2022-09-06T06:24:57.837Z,100.00
2022-09-06T06:27:25.734Z,100.00
2022-09-06T06:29:55.366Z,100.00
2022-09-06T06:32:24.690Z,100.00
2022-09-06T06:34:52.834Z,100.00
2022-09-06T06:37:20.814Z,100.00
2022-09-06T06:39:48.833Z,100.00
2022-09-06T06:42:16.800Z,100.00
2022-09-06T06:44:53.866Z,100.00
2022-09-06T06:47:23.367Z,100.00
2022-09-06T06:49:52.059Z,100.00
2022-09-06T06:52:22.060Z,100.00
2022-09-06T06:54:50.325Z,100.00
2022-09-06T06:57:18.745Z,100.00
2022-09-06T06:59:46.766Z,100.00
2022-09-06T07:02:15.780Z,100.00
2022-09-06T07:04:45.371Z,100.00
2022-09-06T07:12:38.056Z,100.00
2022-09-06T07:15:06.997Z,100.00
2022-09-06T07:17:35.726Z,100.00
2022-09-06T07:20:13.766Z,100.00
2022-09-06T07:22:42.715Z,100.00
2022-09-06T07:25:14.425Z,100.00
2022-09-06T07:30:14.859Z,100.00
2022-09-06T07:32:42.845Z,100.00
2022-09-06T07:35:13.901Z,100.00
2022-09-06T07:37:42.233Z,100.00
2022-09-06T07:40:11.726Z,100.00
2022-09-06T07:42:40.015Z,100.00
2022-09-06T07:45:08.903Z,100.00
2022-09-06T07:53:15.538Z,97.16
2022-09-06T07:55:54.334Z,99.41
2022-09-06T07:58:22.851Z,97.62
2022-09-06T08:00:51.543Z,95.80
2022-09-06T08:03:20.084Z,91.33
2022-09-06T08:11:25.065Z,95.81
2022-09-06T08:13:55.849Z,90.83
2022-09-06T08:16:25.468Z,86.69
2022-09-06T08:18:54.902Z,86.00
2022-09-06T08:21:25.443Z,85.18
2022-09-06T08:23:58.044Z,85.51
2022-09-06T08:26:27.407Z,83.34
2022-09-06T08:28:57.351Z,86.07
2022-09-06T08:31:25.683Z,87.16
2022-09-06T08:33:54.951Z,86.71
2022-09-06T08:36:27.406Z,86.11
2022-09-06T08:38:56.071Z,83.47
2022-09-06T08:41:29.420Z,84.24
2022-09-06T08:46:56.786Z,81.46
2022-09-06T08:49:26.777Z,82.08
2022-09-06T08:52:23.965Z,80.79
2022-09-06T08:54:59.979Z,78.10
2022-09-06T08:57:53.792Z,76.48
2022-09-06T09:00:23.147Z,75.67
2022-09-06T09:03:04.747Z,75.81
2022-09-06T09:05:35.604Z,76.98
2022-09-06T09:08:16.073Z,77.50
2022-09-06T09:10:48.448Z,76.89
2022-09-06T09:13:26.917Z,75.50
2022-09-06T09:15:55.150Z,76.73
2022-09-06T09:18:26.720Z,74.83
2022-09-06T09:20:54.842Z,75.28
2022-09-06T09:23:24.186Z,72.57
2022-09-06T09:25:53.870Z,72.68
2022-09-06T09:28:25.081Z,70.95
2022-09-06T09:30:55.519Z,72.98
2022-09-06T09:33:29.899Z,72.11
2022-09-06T09:36:00.064Z,68.97
2022-09-06T09:38:31.714Z,71.42
2022-09-06T09:41:04.026Z,69.50
2022-09-06T09:43:37.195Z,71.12
2022-09-06T09:46:17.426Z,69.04
2022-09-06T09:49:00.893Z,70.62
2022-09-06T09:51:29.595Z,69.57
2022-09-06T09:54:00.625Z,68.78
2022-09-06T09:56:38.578Z,68.76
2022-09-06T09:59:16.918Z,66.84
2022-09-06T10:01:44.870Z,66.69
2022-09-06T10:07:13.287Z,67.15
2022-09-06T10:09:44.534Z,65.88
2022-09-06T10:12:19.402Z,64.47
2022-09-06T10:14:48.690Z,64.56
2022-09-06T10:17:21.805Z,66.63
2022-09-06T10:19:49.883Z,63.88
2022-09-06T10:22:27.411Z,63.24
2022-09-06T10:25:34.625Z,65.11
2022-09-06T10:28:25.684Z,65.84
2022-09-06T10:31:03.571Z,64.43
2022-09-06T10:33:46.864Z,63.14
2022-09-06T10:36:18.929Z,63.05
2022-09-06T10:38:54.087Z,63.92
2022-09-06T10:41:34.235Z,62.78
2022-09-06T10:44:18.182Z,62.32
2022-09-06T10:46:47.059Z,62.87
2022-09-06T10:49:18.735Z,61.31
2022-09-06T10:51:51.821Z,60.35
2022-09-06T10:54:23.131Z,57.87
2022-09-06T10:56:56.190Z,59.49
2022-09-06T10:59:38.065Z,59.17
2022-09-06T11:02:17.781Z,58.68
2022-09-06T11:10:34.473Z,56.21
2022-09-06T11:13:07.371Z,58.23
2022-09-06T11:15:45.167Z,55.70
2022-09-06T11:18:18.722Z,55.08
2022-09-06T11:20:54.699Z,55.39
2022-09-06T11:23:48.260Z,55.83
2022-09-06T11:26:32.082Z,54.47
2022-09-06T11:29:02.616Z,55.03
2022-09-06T11:34:25.122Z,52.97
2022-09-06T11:36:56.493Z,52.29
2022-09-06T11:42:41.964Z,52.07
2022-09-06T11:45:21.684Z,51.39
2022-09-06T11:47:52.735Z,47.65
2022-09-06T11:50:27.872Z,46.21
2022-09-06T11:53:15.998Z,45.31
2022-09-06T11:55:46.019Z,45.96
2022-09-06T11:58:27.610Z,45.79
2022-09-06T12:01:33.358Z,45.76
2022-09-06T12:04:09.713Z,44.01
2022-09-06T12:06:42.148Z,44.89
2022-09-06T12:09:29.648Z,41.96
2022-09-06T12:11:58.751Z,43.18
2022-09-06T12:14:33.570Z,41.96
2022-09-06T12:17:46.626Z,39.39
2022-09-06T12:20:54.572Z,41.27
2022-09-06T12:23:44.350Z,42.42
2022-09-06T12:26:13.447Z,40.88
2022-09-06T12:28:51.671Z,41.34
2022-09-06T12:31:34.965Z,40.87
2022-09-06T12:34:09.779Z,41.68
2022-09-06T12:36:49.765Z,41.10
2022-09-06T12:39:18.079Z,41.43
2022-09-06T12:41:50.296Z,41.04
2022-09-06T12:44:24.349Z,42.68
2022-09-06T12:46:53.089Z,42.61
2022-09-06T12:49:23.514Z,41.29
2022-09-06T12:52:07.457Z,41.05
2022-09-06T12:54:43.977Z,41.30
2022-09-06T12:57:19.355Z,41.41
2022-09-06T12:59:53.898Z,41.01
2022-09-06T13:02:29.675Z,42.92
2022-09-06T13:05:06.408Z,44.05
2022-09-06T13:07:40.004Z,43.60
2022-09-06T13:10:10.475Z,44.25
2022-09-06T13:12:41.405Z,43.83
2022-09-06T13:15:13.851Z,44.27
2022-09-06T13:17:42.144Z,43.60
2022-09-06T13:20:17.399Z,44.28
2022-09-06T13:22:49.287Z,46.23
2022-09-06T13:25:26.146Z,42.96
2022-09-06T13:27:58.217Z,42.93
2022-09-06T13:30:49.966Z,42.23
2022-09-06T13:33:25.819Z,40.96
2022-09-06T13:36:18.313Z,41.12
2022-09-06T13:38:48.289Z,41.70
2022-09-06T13:41:49.261Z,41.88
2022-09-06T13:44:29.604Z,42.07
2022-09-06T13:46:58.225Z,42.83
2022-09-06T13:49:27.147Z,43.81
2022-09-06T13:52:00.285Z,44.81
2022-09-06T13:54:31.324Z,44.56
2022-09-06T13:57:01.868Z,47.19
2022-09-06T13:59:31.762Z,46.40
2022-09-06T14:02:03.568Z,47.95
2022-09-06T14:04:32.571Z,50.01
2022-09-06T14:07:02.669Z,48.32
2022-09-06T14:09:33.355Z,47.80
2022-09-06T14:12:02.217Z,44.94
2022-09-06T14:14:30.560Z,42.50
2022-09-06T14:16:58.740Z,42.45
2022-09-06T14:19:27.110Z,42.30
2022-09-06T14:21:55.807Z,42.25
2022-09-06T14:24:24.409Z,42.02
2022-09-06T14:26:54.596Z,41.21
2022-09-06T14:29:22.601Z,40.19
2022-09-06T14:31:50.766Z,40.33
2022-09-06T14:34:19.261Z,40.08
2022-09-06T14:36:47.566Z,39.44
2022-09-06T14:39:16.331Z,39.41
2022-09-06T14:41:44.961Z,39.52
2022-09-06T14:44:14.890Z,36.96
2022-09-06T14:46:43.294Z,36.70
2022-09-06T14:49:11.926Z,35.30
2022-09-06T14:51:40.945Z,34.98
2022-09-06T14:54:11.490Z,36.24
2022-09-06T14:56:42.028Z,35.56
2022-09-06T14:59:15.774Z,35.50
2022-09-06T15:01:46.841Z,36.97
2022-09-06T15:04:15.984Z,35.56
2022-09-06T15:06:47.347Z,36.86
2022-09-06T15:09:16.951Z,38.10
2022-09-06T15:11:48.268Z,39.25
2022-09-06T15:14:20.823Z,38.88
2022-09-06T15:16:55.568Z,40.39
2022-09-06T15:19:24.832Z,41.66
2022-09-06T15:21:52.942Z,41.15
2022-09-06T15:24:21.268Z,40.85
2022-09-06T15:26:49.725Z,39.48
2022-09-06T15:29:20.389Z,40.29
2022-09-06T15:31:51.798Z,39.45
2022-09-06T15:34:20.671Z,39.53
2022-09-06T15:36:49.827Z,40.73
2022-09-06T15:39:18.373Z,40.64
2022-09-06T15:41:46.762Z,41.45
2022-09-06T15:44:17.007Z,41.21
2022-09-06T15:46:49.961Z,41.33
2022-09-06T15:49:24.373Z,42.11
2022-09-06T15:51:56.417Z,42.74
2022-09-06T15:54:45.150Z,43.82
2022-09-06T15:57:13.837Z,44.50
2022-09-06T15:59:42.466Z,45.05
2022-09-06T16:02:12.032Z,43.72
2022-09-06T16:04:40.566Z,42.29
2022-09-06T16:07:09.679Z,42.97
2022-09-06T16:09:40.499Z,44.33
2022-09-06T16:12:09.126Z,44.37
2022-09-06T16:14:39.028Z,43.15
2022-09-06T16:17:07.136Z,43.72
2022-09-06T16:19:36.686Z,44.63
2022-09-06T16:22:04.805Z,45.16
2022-09-06T16:24:33.419Z,45.39
2022-09-06T16:27:01.897Z,45.54
2022-09-06T16:29:30.325Z,48.59
2022-09-06T16:31:59.953Z,46.33
2022-09-06T16:34:28.570Z,48.29
2022-09-06T16:36:58.535Z,49.64
2022-09-06T16:39:26.962Z,49.86
2022-09-06T16:41:54.967Z,50.48
2022-09-06T16:44:22.920Z,51.36
2022-09-06T16:46:52.986Z,52.17
2022-09-06T16:49:21.316Z,53.31
2022-09-06T16:51:50.926Z,54.41
2022-09-06T16:54:20.954Z,54.88
2022-09-06T16:56:49.098Z,57.66
2022-09-06T16:59:17.310Z,55.93
2022-09-06T17:01:46.107Z,58.64
2022-09-06T17:04:14.987Z,56.88
2022-09-06T17:06:45.887Z,58.74
2022-09-06T17:09:15.906Z,61.11
2022-09-06T17:11:46.818Z,59.05
2022-09-06T17:14:14.837Z,55.84
2022-09-06T17:17:00.677Z,58.48
2022-09-06T17:19:29.817Z,60.02
2022-09-06T17:21:57.938Z,60.03
2022-09-06T17:24:26.735Z,59.55
2022-09-06T17:26:56.268Z,60.84
2022-09-06T17:29:26.586Z,59.98
2022-09-06T17:31:55.079Z,60.20
2022-09-06T17:34:23.116Z,60.37
2022-09-06T17:36:51.372Z,60.51
2022-09-06T17:39:21.575Z,59.06
2022-09-06T17:41:50.667Z,59.24
2022-09-06T17:44:22.273Z,59.42
2022-09-06T17:47:16.849Z,56.84
2022-09-06T17:49:39.285Z,56.75
2022-09-06T17:52:07.746Z,56.28
2022-09-06T17:54:35.882Z,55.67
2022-09-06T17:57:04.019Z,56.59
2022-09-06T17:59:35.652Z,55.61
2022-09-06T18:02:06.990Z,58.50
2022-09-06T18:04:35.407Z,58.69
2022-09-06T18:07:03.692Z,58.02
2022-09-06T18:09:31.784Z,58.30
2022-09-06T18:12:00.028Z,58.73
2022-09-06T18:14:28.532Z,58.68
2022-09-06T18:16:58.149Z,59.73
2022-09-06T18:19:27.451Z,60.50
2022-09-06T18:21:57.055Z,60.25
2022-09-06T18:24:25.677Z,59.48
2022-09-06T18:26:53.829Z,59.74
2022-09-06T18:29:22.166Z,59.98
2022-09-06T18:31:53.562Z,62.00
2022-09-06T18:34:23.321Z,62.41
2022-09-06T18:36:51.979Z,61.82
2022-09-06T18:39:20.598Z,62.28
2022-09-06T18:42:10.548Z,62.32
2022-09-06T18:44:39.413Z,62.98
2022-09-06T18:47:09.034Z,63.95
2022-09-06T18:49:43.793Z,64.01
2022-09-06T18:52:12.488Z,64.64
2022-09-06T18:54:41.619Z,65.11
2022-09-06T18:57:09.719Z,64.74
2022-09-06T18:59:37.929Z,64.74
2022-09-06T19:02:06.132Z,65.40
2022-09-06T19:04:34.225Z,66.10
2022-09-06T19:07:04.658Z,65.85
2022-09-06T19:09:32.664Z,65.02
2022-09-06T19:12:00.648Z,64.85
2022-09-06T19:14:29.061Z,64.89
2022-09-06T19:16:57.410Z,65.01
2022-09-06T19:19:25.615Z,65.05
2022-09-06T19:21:53.747Z,65.63
2022-09-06T19:24:24.544Z,65.09
2022-09-06T19:26:53.484Z,65.74
2022-09-06T19:29:22.244Z,66.77
2022-09-06T19:31:50.669Z,66.20
2022-09-06T19:34:19.420Z,65.69
2022-09-06T19:36:48.798Z,66.18
2022-09-06T19:39:17.637Z,67.87
2022-09-06T19:41:47.808Z,67.72
2022-09-06T19:44:20.721Z,67.60
2022-09-06T19:46:49.455Z,68.73
2022-09-06T19:49:19.089Z,68.43
2022-09-06T19:51:48.925Z,68.35
2022-09-06T19:54:17.797Z,68.64
2022-09-06T19:56:47.705Z,68.43
2022-09-06T19:59:17.763Z,68.50
2022-09-06T20:01:47.192Z,68.62
2022-09-06T20:04:15.700Z,69.18
2022-09-06T20:06:43.955Z,69.65
2022-09-06T20:09:13.482Z,70.09
2022-09-06T20:11:42.893Z,69.61
2022-09-06T20:14:13.173Z,70.04
2022-09-06T20:16:42.591Z,70.22
2022-09-06T20:19:12.291Z,70.22
2022-09-06T20:21:40.391Z,70.31
2022-09-06T20:24:08.747Z,70.88
2022-09-06T20:26:37.734Z,70.43
2022-09-06T20:29:06.654Z,70.77
2022-09-06T20:31:37.906Z,71.49
2022-09-06T20:34:07.409Z,71.70
2022-09-06T20:36:35.606Z,72.26
2022-09-06T20:39:03.619Z,72.30
2022-09-06T20:41:32.115Z,71.52
2022-09-06T20:44:01.312Z,71.57
2022-09-06T20:46:31.155Z,72.40
2022-09-06T20:49:04.332Z,71.54
2022-09-06T20:51:34.173Z,72.07
2022-09-06T20:54:03.753Z,71.89
2022-09-06T20:56:34.207Z,71.87
2022-09-06T20:59:04.129Z,71.87
2022-09-06T21:01:34.949Z,72.88
2022-09-06T21:04:07.974Z,73.94
2022-09-06T21:06:37.696Z,73.92
2022-09-06T21:09:08.213Z,73.32
2022-09-06T21:11:36.576Z,74.01
2022-09-06T21:14:05.234Z,74.66
2022-09-06T21:16:33.890Z,74.08
2022-09-06T21:19:04.293Z,73.10
2022-09-06T21:21:35.684Z,72.85
2022-09-06T21:24:05.606Z,73.50
2022-09-06T21:26:34.381Z,73.61
2022-09-06T21:29:03.517Z,74.02
2022-09-06T21:31:32.829Z,74.52
2022-09-06T21:34:03.796Z,74.96
2022-09-06T21:36:36.031Z,75.19
2022-09-06T21:39:09.445Z,74.53
2022-09-06T21:41:38.673Z,75.84
2022-09-06T21:44:08.272Z,76.06
2022-09-06T21:46:39.573Z,75.73
2022-09-06T21:49:09.715Z,75.05
2022-09-06T21:51:39.729Z,75.58
2022-09-06T21:54:08.585Z,74.42
2022-09-06T21:56:38.163Z,74.31
2022-09-06T21:59:07.165Z,74.21
2022-09-06T22:01:37.078Z,74.46
2022-09-06T22:04:06.206Z,74.52
2022-09-06T22:06:35.728Z,74.11
2022-09-06T22:09:07.673Z,75.17
2022-09-06T22:11:36.399Z,76.75
2022-09-06T22:14:07.469Z,76.63
2022-09-06T22:16:37.402Z,77.02
2022-09-06T22:19:06.338Z,76.54
2022-09-06T22:21:34.742Z,76.46
2022-09-06T22:24:06.285Z,75.83
2022-09-06T22:26:36.579Z,75.24
2022-09-06T22:29:06.810Z,75.16
2022-09-06T22:31:37.419Z,75.44
2022-09-06T22:34:05.651Z,75.55
2022-09-06T22:36:34.045Z,76.86
2022-09-06T22:39:02.125Z,78.15
2022-09-06T22:41:33.904Z,78.02
2022-09-06T22:44:02.854Z,76.73
2022-09-06T22:46:31.431Z,75.76
2022-09-06T22:49:00.177Z,74.21
2022-09-06T22:51:28.219Z,73.47
2022-09-06T22:53:56.235Z,73.73
2022-09-06T22:56:24.757Z,73.67
2022-09-06T22:58:54.470Z,73.72
2022-09-06T23:01:22.537Z,74.31
2022-09-06T23:03:50.659Z,75.40
2022-09-06T23:06:19.336Z,74.62
2022-09-06T23:08:47.777Z,75.89
2022-09-06T23:11:17.699Z,76.63
2022-09-06T23:13:47.114Z,76.61
2022-09-06T23:16:18.659Z,77.18
2022-09-06T23:18:47.458Z,77.67
2022-09-06T23:21:18.013Z,78.13
2022-09-06T23:23:46.934Z,78.26
2022-09-06T23:26:17.368Z,78.48
2022-09-06T23:28:46.054Z,78.38
2022-09-06T23:31:16.865Z,78.96
2022-09-06T23:33:45.266Z,79.00
2022-09-06T23:36:14.709Z,78.83
2022-09-06T23:38:43.995Z,80.89
2022-09-06T23:41:13.302Z,79.61
2022-09-06T23:43:42.909Z,78.57
2022-09-06T23:46:12.282Z,78.91
2022-09-06T23:48:42.882Z,78.40
2022-09-06T23:51:11.409Z,77.52
2022-09-06T23:53:39.915Z,76.79
2022-09-06T23:56:08.618Z,78.20
2022-09-06T23:58:37.475Z,76.98
